createdAt,value
2017-09-28T00:00:46.287Z,0
2017-09-28T00:01:46.263Z,0
2017-09-28T00:02:46.282Z,0
2017-09-28T00:03:46.303Z,0
2017-09-28T00:04:46.657Z,0
2017-09-28T00:05:46.344Z,0
2017-09-28T00:06:46.373Z,0
2017-09-28T00:07:46.399Z,0
2017-09-28T00:08:46.425Z,0
2017-09-28T00:09:46.446Z,0
2017-09-28T00:10:46.468Z,0
2017-09-28T00:11:46.800Z,0
2017-09-28T00:12:52.771Z,0
2017-09-28T00:13:46.536Z,0
2017-09-28T00:14:46.549Z,0
2017-09-28T00:15:46.633Z,0
2017-09-28T00:16:46.598Z,0
2017-09-28T00:17:46.619Z,0
2017-09-28T00:18:46.642Z,0
2017-09-28T00:19:46.668Z,0
2017-09-28T00:20:46.695Z,0
2017-09-28T00:21:46.706Z,0
2017-09-28T00:22:46.734Z,0
2017-09-28T00:23:46.761Z,0
2017-09-28T00:24:46.775Z,0
2017-09-28T00:25:46.797Z,0
2017-09-28T00:26:46.821Z,0
2017-09-28T00:27:46.844Z,0
2017-09-28T00:28:46.866Z,0
2017-09-28T00:29:46.897Z,0
2017-09-28T00:30:46.962Z,0
2017-09-28T00:31:46.943Z,0
2017-09-28T00:32:46.966Z,0
2017-09-28T00:33:46.978Z,0
2017-09-28T00:34:47.006Z,0
2017-09-28T00:35:47.029Z,0
2017-09-28T00:36:47.052Z,0
2017-09-28T00:37:47.076Z,0
2017-09-28T00:38:47.094Z,0
2017-09-28T00:39:47.118Z,0
2017-09-28T00:40:47.139Z,0
2017-09-28T00:41:47.157Z,0
2017-09-28T00:42:47.185Z,0
2017-09-28T00:43:47.199Z,0
2017-09-28T00:44:47.229Z,0
2017-09-28T00:45:47.246Z,0
2017-09-28T00:46:47.268Z,0
2017-09-28T00:47:47.317Z,0
2017-09-28T00:48:47.323Z,0
2017-09-28T00:49:47.334Z,0
2017-09-28T00:50:47.357Z,0
2017-09-28T00:51:47.379Z,0
2017-09-28T00:52:47.409Z,0
2017-09-28T00:53:47.441Z,0
2017-09-28T00:54:47.446Z,0
2017-09-28T00:55:47.470Z,0
2017-09-28T00:56:47.486Z,0
2017-09-28T00:57:47.509Z,0
2017-09-28T00:58:47.847Z,0
2017-09-28T00:59:47.871Z,0
2017-09-28T01:00:47.585Z,0
2017-09-28T01:01:47.617Z,0
2017-09-28T01:02:47.622Z,0
2017-09-28T01:03:47.651Z,0
2017-09-28T01:04:47.665Z,0
2017-09-28T01:05:47.689Z,0
2017-09-28T01:06:47.710Z,0
2017-09-28T01:07:47.730Z,0
2017-09-28T01:08:47.804Z,0
2017-09-28T01:09:47.787Z,0
2017-09-28T01:10:47.818Z,0
2017-09-28T01:11:47.843Z,0
2017-09-28T01:12:47.850Z,0
2017-09-28T01:13:47.867Z,0
2017-09-28T01:14:48.204Z,0
2017-09-28T01:15:47.936Z,0
2017-09-28T01:16:47.957Z,0
2017-09-28T01:17:47.957Z,0
2017-09-28T01:18:48.041Z,0
2017-09-28T01:19:48.006Z,0
2017-09-28T01:20:48.020Z,0
2017-09-28T01:21:48.048Z,0
2017-09-28T01:22:48.062Z,0
2017-09-28T01:23:48.089Z,0
2017-09-28T01:24:48.110Z,0
2017-09-28T01:25:48.134Z,0
2017-09-28T01:26:48.159Z,0
2017-09-28T01:27:48.173Z,0
2017-09-28T01:28:48.195Z,0
2017-09-28T01:29:48.229Z,0
2017-09-28T01:30:48.247Z,0
2017-09-28T01:31:48.780Z,0
2017-09-28T01:32:49.602Z,0
2017-09-28T01:33:48.319Z,0
2017-09-28T01:34:48.516Z,0
2017-09-28T01:35:48.402Z,0
2017-09-28T01:36:48.684Z,0
2017-09-28T01:37:48.390Z,0
2017-09-28T01:38:48.423Z,0
2017-09-28T01:39:48.448Z,0
2017-09-28T01:40:48.779Z,0
2017-09-28T01:41:48.485Z,0
2017-09-28T01:42:48.505Z,0
2017-09-28T01:43:48.523Z,0
2017-09-28T01:44:48.542Z,0
2017-09-28T01:45:48.569Z,0
2017-09-28T01:46:48.589Z,0
2017-09-28T01:47:48.614Z,0
2017-09-28T01:48:48.630Z,0
2017-09-28T01:49:48.658Z,0
2017-09-28T01:50:48.724Z,0
2017-09-28T01:51:48.696Z,0
2017-09-28T01:52:48.718Z,0
2017-09-28T01:53:49.056Z,0
2017-09-28T01:54:48.773Z,0
2017-09-28T01:55:49.099Z,0
2017-09-28T01:56:48.822Z,0
2017-09-28T01:57:48.830Z,0
2017-09-28T01:58:48.855Z,0
2017-09-28T01:59:48.872Z,0
2017-09-28T02:00:48.895Z,0
2017-09-28T02:01:48.915Z,0
2017-09-28T02:02:48.956Z,0
2017-09-28T02:03:49.296Z,0
2017-09-28T02:04:48.985Z,0
2017-09-28T02:05:49.005Z,0
2017-09-28T02:06:49.393Z,0
2017-09-28T02:07:49.048Z,0
2017-09-28T02:08:49.068Z,0
2017-09-28T02:09:49.095Z,0
2017-09-28T02:10:49.434Z,0
2017-09-28T02:11:49.135Z,0
2017-09-28T02:12:49.469Z,0
2017-09-28T02:13:49.171Z,0
2017-09-28T02:14:49.509Z,0
2017-09-28T02:15:49.538Z,0
2017-09-28T02:16:49.239Z,0
2017-09-28T02:17:49.577Z,0
2017-09-28T02:18:49.282Z,0
2017-09-28T02:19:49.323Z,0
2017-09-28T02:20:49.330Z,0
2017-09-28T02:21:49.344Z,0
2017-09-28T02:22:49.367Z,0
2017-09-28T02:23:49.701Z,0
2017-09-28T02:24:49.418Z,0
2017-09-28T02:25:49.453Z,0
2017-09-28T02:26:49.456Z,0
2017-09-28T02:27:49.476Z,0
2017-09-28T02:28:49.495Z,0
2017-09-28T02:29:49.520Z,0
2017-09-28T02:30:49.539Z,0
2017-09-28T02:31:49.874Z,0
2017-09-28T02:32:49.896Z,0
2017-09-28T02:33:49.605Z,0
2017-09-28T02:34:49.628Z,0
2017-09-28T02:35:49.652Z,0
2017-09-28T02:36:49.672Z,0
2017-09-28T02:37:49.688Z,0
2017-09-28T02:38:49.719Z,0
2017-09-28T02:39:49.734Z,0
2017-09-28T02:40:49.757Z,0
2017-09-28T02:41:49.781Z,0
2017-09-28T02:42:49.827Z,0
2017-09-28T02:43:49.822Z,0
2017-09-28T02:44:49.846Z,0
2017-09-28T02:45:49.867Z,0
2017-09-28T02:46:49.885Z,0
2017-09-28T02:47:49.914Z,0
2017-09-28T02:48:49.929Z,0
2017-09-28T02:49:50.266Z,0
2017-09-28T02:50:50.287Z,0
2017-09-28T02:51:49.995Z,0
2017-09-28T02:52:50.016Z,0
2017-09-28T02:53:50.030Z,0
2017-09-28T02:54:50.063Z,0
2017-09-28T02:55:50.076Z,0
2017-09-28T02:56:50.151Z,0
2017-09-28T02:57:50.431Z,0
2017-09-28T02:58:50.148Z,0
2017-09-28T02:59:50.170Z,0
2017-09-28T03:00:50.184Z,0
2017-09-28T03:01:50.202Z,0
2017-09-28T03:02:50.222Z,0
2017-09-28T03:03:50.251Z,0
2017-09-28T03:04:50.276Z,0
2017-09-28T03:05:50.342Z,0
2017-09-28T03:06:50.623Z,0
2017-09-28T03:07:50.333Z,0
2017-09-28T03:08:50.364Z,0
2017-09-28T03:09:50.689Z,0
2017-09-28T03:10:50.418Z,0
2017-09-28T03:11:50.420Z,0
2017-09-28T03:12:50.443Z,0
2017-09-28T03:13:50.463Z,0
2017-09-28T03:14:50.485Z,0
2017-09-28T03:15:50.505Z,0
2017-09-28T03:16:50.527Z,0
2017-09-28T03:17:50.547Z,0
2017-09-28T03:18:50.580Z,0
2017-09-28T03:19:50.594Z,0
2017-09-28T03:20:50.617Z,0
2017-09-28T03:21:50.651Z,0
2017-09-28T03:22:50.662Z,0
2017-09-28T03:23:50.685Z,0
2017-09-28T03:24:50.700Z,0
2017-09-28T03:25:50.723Z,0
2017-09-28T03:26:50.747Z,0
2017-09-28T03:27:50.780Z,0
2017-09-28T03:28:50.791Z,0
2017-09-28T03:29:50.807Z,0
2017-09-28T03:30:50.882Z,0
2017-09-28T03:31:50.854Z,0
2017-09-28T03:32:51.200Z,0
2017-09-28T03:33:51.209Z,0
2017-09-28T03:34:50.913Z,0
2017-09-28T03:35:50.939Z,0
2017-09-28T03:36:51.272Z,0
2017-09-28T03:37:50.973Z,0
2017-09-28T03:38:51.317Z,0
2017-09-28T03:39:51.029Z,0
2017-09-28T03:40:51.048Z,0
2017-09-28T03:41:51.072Z,0
2017-09-28T03:42:51.084Z,0
2017-09-28T03:43:51.115Z,0
2017-09-28T03:44:51.434Z,0
2017-09-28T03:45:51.200Z,0
2017-09-28T03:46:51.483Z,0
2017-09-28T03:47:51.191Z,0
2017-09-28T03:48:51.517Z,0
2017-09-28T03:49:51.245Z,0
2017-09-28T03:50:51.250Z,0
2017-09-28T03:51:51.275Z,0
2017-09-28T03:52:51.608Z,0
2017-09-28T03:53:51.316Z,0
2017-09-28T03:54:51.665Z,0
2017-09-28T03:55:51.363Z,0
2017-09-28T03:56:51.386Z,0
2017-09-28T03:57:51.404Z,0
2017-09-28T03:58:51.739Z,0
2017-09-28T03:59:51.451Z,0
2017-09-28T04:00:51.480Z,0
2017-09-28T04:01:51.483Z,0
2017-09-28T04:02:51.506Z,0
2017-09-28T04:03:51.539Z,0
2017-09-28T04:04:51.557Z,0
2017-09-28T04:05:51.571Z,0
2017-09-28T04:06:51.596Z,0
2017-09-28T04:07:51.621Z,0
2017-09-28T04:08:51.632Z,0
2017-09-28T04:09:51.654Z,0
2017-09-28T04:10:51.984Z,0
2017-09-28T04:11:51.711Z,0
2017-09-28T04:12:51.730Z,0
2017-09-28T04:13:51.744Z,0
2017-09-28T04:14:51.759Z,0
2017-09-28T04:15:52.093Z,0
2017-09-28T04:16:51.801Z,0
2017-09-28T04:17:51.828Z,0
2017-09-28T04:18:51.846Z,0
2017-09-28T04:19:52.173Z,0
2017-09-28T04:20:51.936Z,0
2017-09-28T04:21:51.906Z,0
2017-09-28T04:22:51.935Z,0
2017-09-28T04:23:51.947Z,0
2017-09-28T04:24:51.972Z,0
2017-09-28T04:25:51.990Z,0
2017-09-28T04:26:52.010Z,0
2017-09-28T04:27:52.035Z,0
2017-09-28T04:28:52.069Z,0
2017-09-28T04:29:52.087Z,0
2017-09-28T04:30:52.097Z,0
2017-09-28T04:31:52.114Z,0
2017-09-28T04:32:52.138Z,0
2017-09-28T04:33:52.154Z,0
2017-09-28T04:34:52.503Z,0
2017-09-28T04:35:52.206Z,0
2017-09-28T04:36:52.222Z,0
2017-09-28T04:37:52.253Z,0
2017-09-28T04:38:52.312Z,0
2017-09-28T04:39:52.282Z,0
2017-09-28T04:40:52.624Z,0
2017-09-28T04:41:52.344Z,4
2017-09-28T04:42:52.344Z,4
2017-09-28T04:43:52.372Z,0
2017-09-28T04:44:52.708Z,4
2017-09-28T04:45:52.409Z,4
2017-09-28T04:46:52.431Z,4
2017-09-28T04:47:52.451Z,8
2017-09-28T04:48:52.489Z,8
2017-09-28T04:49:52.494Z,8
2017-09-28T04:50:52.531Z,12
2017-09-28T04:51:52.542Z,12
2017-09-28T04:52:52.563Z,16
2017-09-28T04:53:52.577Z,16
2017-09-28T04:54:52.656Z,20
2017-09-28T04:55:52.619Z,28
2017-09-28T04:56:52.654Z,32
2017-09-28T04:57:52.668Z,40
2017-09-28T04:58:52.686Z,48
2017-09-28T04:59:52.711Z,52
2017-09-28T05:00:52.728Z,64
2017-09-28T05:01:52.752Z,76
2017-09-28T05:02:52.781Z,92
2017-09-28T05:03:52.796Z,112
2017-09-28T05:04:53.129Z,128
2017-09-28T05:05:52.832Z,152
2017-09-28T05:06:52.859Z,172
2017-09-28T05:07:53.189Z,200
2017-09-28T05:08:52.900Z,224
2017-09-28T05:09:52.930Z,252
2017-09-28T05:10:53.260Z,280
2017-09-28T05:11:53.274Z,316
2017-09-28T05:12:53.311Z,348
2017-09-28T05:13:53.013Z,384
2017-09-28T05:14:53.025Z,424
2017-09-28T05:15:53.052Z,464
2017-09-28T05:16:53.065Z,512
2017-09-28T05:17:53.089Z,560
2017-09-28T05:18:53.105Z,616
2017-09-28T05:19:53.131Z,676
2017-09-28T05:20:53.154Z,740
2017-09-28T05:21:53.166Z,812
2017-09-28T05:22:53.194Z,884
2017-09-28T05:23:53.214Z,956
2017-09-28T05:24:53.232Z,1028
2017-09-28T05:25:53.262Z,1096
2017-09-28T05:26:53.279Z,1164
2017-09-28T05:27:53.306Z,1220
2017-09-28T05:28:53.368Z,1280
2017-09-28T05:29:53.361Z,1328
2017-09-28T05:30:53.359Z,1380
2017-09-28T05:31:53.387Z,1424
2017-09-28T05:32:53.410Z,1468
2017-09-28T05:33:53.429Z,1512
2017-09-28T05:34:53.447Z,1544
2017-09-28T05:35:53.468Z,1576
2017-09-28T05:36:53.500Z,1608
2017-09-28T05:37:53.517Z,1636
2017-09-28T05:38:53.531Z,1664
2017-09-28T05:39:53.559Z,1700
2017-09-28T05:40:53.584Z,1740
2017-09-28T05:41:53.604Z,1780
2017-09-28T05:42:53.623Z,1824
2017-09-28T05:43:54.315Z,1876
2017-09-28T05:44:53.661Z,1932
2017-09-28T05:45:54.004Z,1996
2017-09-28T05:46:53.704Z,2056
2017-09-28T05:47:53.779Z,2104
2017-09-28T05:48:53.751Z,2164
2017-09-28T05:49:53.772Z,2268
2017-09-28T05:50:53.798Z,2348
2017-09-28T05:51:53.825Z,2424
2017-09-28T05:52:53.835Z,2508
2017-09-28T05:53:53.854Z,2588
2017-09-28T05:54:53.881Z,2676
2017-09-28T05:55:53.900Z,2760
2017-09-28T05:56:54.237Z,2840
2017-09-28T05:57:53.939Z,2920
2017-09-28T05:58:53.965Z,3008
2017-09-28T05:59:53.986Z,3092
2017-09-28T06:00:54.008Z,3176
2017-09-28T06:01:54.031Z,3260
2017-09-28T06:02:54.154Z,3336
2017-09-28T06:03:54.076Z,3412
2017-09-28T06:04:54.096Z,3480
2017-09-28T06:05:54.119Z,3540
2017-09-28T06:06:54.140Z,3548
2017-09-28T06:07:54.161Z,3504
2017-09-28T06:08:54.197Z,3684
2017-09-28T06:09:54.211Z,3632
2017-09-28T06:10:54.231Z,3616
2017-09-28T06:11:54.258Z,3524
2017-09-28T06:12:54.277Z,3644
2017-09-28T06:13:54.621Z,3732
2017-09-28T06:14:54.323Z,3904
2017-09-28T06:15:54.371Z,3960
2017-09-28T06:16:54.367Z,3816
2017-09-28T06:17:54.447Z,4092
2017-09-28T06:18:54.413Z,4104
2017-09-28T06:19:54.435Z,4036
2017-09-28T06:20:54.463Z,4092
2017-09-28T06:21:54.481Z,4156
2017-09-28T06:22:54.994Z,4152
2017-09-28T06:23:54.538Z,4104
2017-09-28T06:24:54.881Z,4220
2017-09-28T06:25:55.201Z,4180
2017-09-28T06:26:54.915Z,4404
2017-09-28T06:27:54.939Z,4436
2017-09-28T06:28:55.259Z,4088
2017-09-28T06:29:54.660Z,4040
2017-09-28T06:30:54.986Z,4184
2017-09-28T06:31:54.715Z,4372
2017-09-28T06:32:54.726Z,4748
2017-09-28T06:33:54.744Z,4652
2017-09-28T06:34:54.777Z,4488
2017-09-28T06:35:54.853Z,4220
2017-09-28T06:36:54.823Z,4336
2017-09-28T06:37:55.173Z,4512
2017-09-28T06:38:55.180Z,4792
2017-09-28T06:39:54.888Z,4992
2017-09-28T06:40:55.313Z,5220
2017-09-28T06:41:55.264Z,5180
2017-09-28T06:42:54.960Z,4944
2017-09-28T06:43:54.983Z,5140
2017-09-28T06:44:55.003Z,5336
2017-09-28T06:45:55.052Z,5376
2017-09-28T06:46:55.058Z,5524
2017-09-28T06:47:55.079Z,5564
2017-09-28T06:48:55.101Z,5608
2017-09-28T06:49:55.446Z,5764
2017-09-28T06:50:55.196Z,6068
2017-09-28T06:51:55.167Z,6400
2017-09-28T06:52:55.187Z,6472
2017-09-28T06:53:55.217Z,6548
2017-09-28T06:54:55.238Z,6636
2017-09-28T06:55:55.264Z,6432
2017-09-28T06:56:55.283Z,6512
2017-09-28T06:57:55.300Z,6656
2017-09-28T06:58:55.332Z,6520
2017-09-28T06:59:55.350Z,6364
2017-09-28T07:00:55.374Z,6368
2017-09-28T07:01:55.711Z,5868
2017-09-28T07:02:55.422Z,5940
2017-09-28T07:03:55.443Z,6356
2017-09-28T07:04:55.469Z,6192
2017-09-28T07:05:55.489Z,5968
2017-09-28T07:06:55.515Z,6160
2017-09-28T07:07:55.540Z,6316
2017-09-28T07:08:55.561Z,6368
2017-09-28T07:09:55.640Z,6488
2017-09-28T07:10:55.608Z,6532
2017-09-28T07:11:55.645Z,6312
2017-09-28T07:12:55.701Z,6484
2017-09-28T07:13:55.681Z,6564
2017-09-28T07:14:55.709Z,6756
2017-09-28T07:15:55.726Z,6412
2017-09-28T07:16:55.771Z,6336
2017-09-28T07:17:55.780Z,6044
2017-09-28T07:18:55.796Z,6012
2017-09-28T07:19:55.830Z,6016
2017-09-28T07:20:55.849Z,6036
2017-09-28T07:21:55.872Z,6076
2017-09-28T07:22:55.900Z,5960
2017-09-28T07:23:55.942Z,6040
2017-09-28T07:24:56.256Z,6032
2017-09-28T07:25:55.973Z,5996
2017-09-28T07:26:56.519Z,5944
2017-09-28T07:27:56.332Z,5948
2017-09-28T07:28:56.093Z,5888
2017-09-28T07:29:56.065Z,5944
2017-09-28T07:30:56.406Z,5948
2017-09-28T07:31:56.115Z,5900
2017-09-28T07:32:56.136Z,5900
2017-09-28T07:33:56.852Z,5904
2017-09-28T07:34:56.519Z,5908
2017-09-28T07:35:56.211Z,6060
2017-09-28T07:36:56.236Z,6100
2017-09-28T07:37:56.270Z,6056
2017-09-28T07:38:56.287Z,6084
2017-09-28T07:39:56.312Z,6052
2017-09-28T07:40:59.859Z,6104
2017-09-28T07:41:56.361Z,6124
2017-09-28T07:42:56.690Z,6208
2017-09-28T07:43:56.416Z,6208
2017-09-28T07:44:56.436Z,6296
2017-09-28T07:45:56.456Z,6356
2017-09-28T07:46:56.946Z,6440
2017-09-28T07:47:56.502Z,6484
2017-09-28T07:48:56.532Z,6564
2017-09-28T07:49:56.546Z,6580
2017-09-28T07:50:56.580Z,6636
2017-09-28T07:51:56.600Z,6764
2017-09-28T07:52:56.632Z,6836
2017-09-28T07:53:56.645Z,6880
2017-09-28T07:54:56.678Z,6940
2017-09-28T07:55:57.017Z,7068
2017-09-28T07:56:56.722Z,7204
2017-09-28T07:57:56.743Z,7244
2017-09-28T07:58:56.794Z,7224
2017-09-28T07:59:56.792Z,7328
2017-09-28T08:00:57.134Z,7488
2017-09-28T08:01:56.849Z,7584
2017-09-28T08:02:56.884Z,7524
2017-09-28T08:03:56.897Z,7344
2017-09-28T08:04:56.914Z,7328
2017-09-28T08:05:56.938Z,7408
2017-09-28T08:06:56.988Z,7524
2017-09-28T08:07:57.319Z,7668
2017-09-28T08:08:57.010Z,7788
2017-09-28T08:09:57.038Z,7996
2017-09-28T08:10:57.381Z,8296
2017-09-28T08:11:57.089Z,8300
2017-09-28T08:12:57.134Z,8308
2017-09-28T08:13:57.133Z,8412
2017-09-28T08:14:57.199Z,8468
2017-09-28T08:15:57.456Z,8552
2017-09-28T08:16:57.220Z,8552
2017-09-28T08:17:57.244Z,8548
2017-09-28T08:18:57.286Z,8456
2017-09-28T08:19:57.435Z,8448
2017-09-28T08:20:57.406Z,8488
2017-09-28T08:21:57.961Z,8476
2017-09-28T08:22:57.354Z,8552
2017-09-28T08:23:57.385Z,8640
2017-09-28T08:24:57.411Z,8684
2017-09-28T08:25:57.436Z,8736
2017-09-28T08:26:57.454Z,8804
2017-09-28T08:27:57.994Z,8896
2017-09-28T08:28:57.516Z,8820
2017-09-28T08:29:57.535Z,8884
2017-09-28T08:30:57.559Z,8944
2017-09-28T08:31:57.590Z,9072
2017-09-28T08:32:57.608Z,9144
2017-09-28T08:33:57.635Z,9248
2017-09-28T08:34:57.654Z,9360
2017-09-28T08:35:57.686Z,9416
2017-09-28T08:36:57.707Z,9420
2017-09-28T08:37:57.787Z,9380
2017-09-28T08:38:57.757Z,9420
2017-09-28T08:39:57.839Z,9528
2017-09-28T08:40:58.115Z,9504
2017-09-28T08:41:57.841Z,9536
2017-09-28T08:42:57.865Z,9440
2017-09-28T08:43:57.878Z,9496
2017-09-28T08:44:57.910Z,9516
2017-09-28T08:45:57.930Z,9520
2017-09-28T08:46:57.956Z,9632
2017-09-28T08:47:57.984Z,9600
2017-09-28T08:48:58.012Z,9812
2017-09-28T08:49:58.047Z,9860
2017-09-28T08:50:58.081Z,9904
2017-09-28T08:51:58.100Z,9968
2017-09-28T08:52:58.173Z,10040
2017-09-28T08:53:58.138Z,10184
2017-09-28T08:54:58.162Z,10252
2017-09-28T08:55:58.185Z,10432
2017-09-28T08:56:58.210Z,10552
2017-09-28T08:57:58.262Z,10620
2017-09-28T08:58:58.268Z,10584
2017-09-28T08:59:58.282Z,10788
2017-09-28T09:00:58.317Z,10648
2017-09-28T09:01:58.501Z,10628
2017-09-28T09:02:58.361Z,10616
2017-09-28T09:03:58.391Z,10508
2017-09-28T09:04:58.424Z,10424
2017-09-28T09:05:58.446Z,10484
2017-09-28T09:06:58.780Z,10548
2017-09-28T09:07:58.555Z,10600
2017-09-28T09:08:58.825Z,10696
2017-09-28T09:09:58.539Z,10812
2017-09-28T09:10:58.567Z,10940
2017-09-28T09:11:58.597Z,10968
2017-09-28T09:12:58.621Z,10976
2017-09-28T09:13:58.653Z,10976
2017-09-28T09:14:58.678Z,10964
2017-09-28T09:15:58.698Z,10964
2017-09-28T09:16:58.724Z,11096
2017-09-28T09:17:58.752Z,11124
2017-09-28T09:18:58.779Z,11040
2017-09-28T09:19:58.799Z,11028
2017-09-28T09:20:58.823Z,11008
2017-09-28T09:21:58.861Z,11116
2017-09-28T09:22:58.932Z,11136
2017-09-28T09:23:58.904Z,11164
2017-09-28T09:24:58.933Z,11112
2017-09-28T09:25:58.964Z,11232
2017-09-28T09:26:58.980Z,11312
2017-09-28T09:27:59.015Z,11292
2017-09-28T09:28:59.035Z,11416
2017-09-28T09:29:59.370Z,11552
2017-09-28T09:30:59.101Z,11536
2017-09-28T09:31:59.425Z,11616
2017-09-28T09:32:59.139Z,11872
2017-09-28T09:33:59.166Z,11920
2017-09-28T09:34:59.192Z,12028
2017-09-28T09:35:59.221Z,12264
2017-09-28T09:36:59.248Z,12688
2017-09-28T09:37:59.280Z,12684
2017-09-28T09:38:59.302Z,12772
2017-09-28T09:39:59.376Z,12940
2017-09-28T09:40:59.356Z,13192
2017-09-28T09:41:59.383Z,13528
2017-09-28T09:42:59.719Z,14112
2017-09-28T09:43:59.436Z,14940
2017-09-28T09:44:59.466Z,15776
2017-09-28T09:45:59.489Z,16864
2017-09-28T09:46:59.512Z,16768
2017-09-28T09:47:59.547Z,16256
2017-09-28T09:48:59.570Z,16576
2017-09-28T09:49:59.591Z,16192
2017-09-28T09:50:59.632Z,17472
2017-09-28T09:51:59.647Z,19904
2017-09-28T09:52:59.673Z,18784
2017-09-28T09:53:59.706Z,19136
2017-09-28T09:54:59.781Z,20096
2017-09-28T09:55:59.768Z,20032
2017-09-28T09:56:59.790Z,19584
2017-09-28T09:57:59.814Z,19808
2017-09-28T09:58:59.841Z,18880
2017-09-28T10:00:00.174Z,18528
2017-09-28T10:00:59.894Z,18336
2017-09-28T10:02:00.243Z,18944
2017-09-28T10:02:59.951Z,20608
2017-09-28T10:03:59.982Z,20096
2017-09-28T10:05:00.323Z,19968
2017-09-28T10:06:00.030Z,20832
2017-09-28T10:07:00.059Z,20416
2017-09-28T10:08:00.091Z,22112
2017-09-28T10:09:00.119Z,22720
2017-09-28T10:10:00.146Z,21952
2017-09-28T10:11:00.238Z,21664
2017-09-28T10:12:00.218Z,21312
2017-09-28T10:13:00.228Z,20512
2017-09-28T10:14:00.257Z,19328
2017-09-28T10:15:00.285Z,19616
2017-09-28T10:16:00.317Z,20736
2017-09-28T10:17:00.347Z,19488
2017-09-28T10:18:00.379Z,18144
2017-09-28T10:19:00.402Z,19360
2017-09-28T10:20:00.431Z,19680
2017-09-28T10:21:00.463Z,19872
2017-09-28T10:22:00.486Z,19328
2017-09-28T10:23:00.514Z,19616
2017-09-28T10:24:00.544Z,19488
2017-09-28T10:25:00.582Z,19872
2017-09-28T10:26:00.603Z,20064
2017-09-28T10:27:00.635Z,19712
2017-09-28T10:28:00.718Z,19840
2017-09-28T10:29:00.690Z,19200
2017-09-28T10:30:00.722Z,18592
2017-09-28T10:31:00.754Z,18560
2017-09-28T10:32:00.778Z,18304
2017-09-28T10:33:00.814Z,18176
2017-09-28T10:34:00.841Z,18144
2017-09-28T10:35:00.868Z,18816
2017-09-28T10:36:00.896Z,17728
2017-09-28T10:37:00.936Z,17504
2017-09-28T10:38:00.955Z,16704
2017-09-28T10:39:00.985Z,17248
2017-09-28T10:40:01.042Z,16448
2017-09-28T10:41:01.052Z,16320
2017-09-28T10:42:01.068Z,16192
2017-09-28T10:43:01.104Z,16032
2017-09-28T10:44:01.126Z,15312
2017-09-28T10:45:01.477Z,15532
2017-09-28T10:46:01.449Z,15136
2017-09-28T10:47:01.209Z,14864
2017-09-28T10:48:01.242Z,14780
2017-09-28T10:49:01.584Z,14752
2017-09-28T10:50:01.323Z,14868
2017-09-28T10:51:01.331Z,14744
2017-09-28T10:52:01.365Z,14776
2017-09-28T10:53:01.389Z,14552
2017-09-28T10:54:01.410Z,14708
2017-09-28T10:55:01.443Z,14944
2017-09-28T10:56:01.467Z,14928
2017-09-28T10:57:01.702Z,15132
2017-09-28T10:58:01.534Z,14936
2017-09-28T10:59:01.572Z,14436
2017-09-28T11:00:01.583Z,14440
2017-09-28T11:01:01.609Z,14452
2017-09-28T11:02:01.963Z,14448
2017-09-28T11:03:02.000Z,14540
2017-09-28T11:04:01.704Z,14556
2017-09-28T11:05:01.725Z,14668
2017-09-28T11:06:01.754Z,15012
2017-09-28T11:07:01.788Z,15228
2017-09-28T11:08:02.128Z,15712
2017-09-28T11:09:01.844Z,15904
2017-09-28T11:10:01.865Z,16128
2017-09-28T11:11:01.910Z,16320
2017-09-28T11:12:01.931Z,16672
2017-09-28T11:13:01.956Z,16288
2017-09-28T11:14:01.981Z,16192
2017-09-28T11:15:02.013Z,15904
2017-09-28T11:16:02.056Z,16544
2017-09-28T11:17:02.066Z,17248
2017-09-28T11:18:02.092Z,17152
2017-09-28T11:19:02.176Z,17056
2017-09-28T11:20:02.149Z,17312
2017-09-28T11:21:02.197Z,17376
2017-09-28T11:22:02.543Z,17248
2017-09-28T11:23:02.561Z,17280
2017-09-28T11:24:02.278Z,17184
2017-09-28T11:25:02.318Z,17120
2017-09-28T11:26:02.329Z,16832
2017-09-28T11:27:02.371Z,16992
2017-09-28T11:28:02.701Z,18464
2017-09-28T11:29:02.418Z,19072
2017-09-28T11:30:02.766Z,18656
2017-09-28T11:31:02.797Z,18112
2017-09-28T11:32:02.844Z,17728
2017-09-28T11:33:02.542Z,17344
2017-09-28T11:34:02.558Z,17632
2017-09-28T11:35:02.581Z,17984
2017-09-28T11:36:02.614Z,17248
2017-09-28T11:37:02.639Z,17344
2017-09-28T11:38:02.726Z,17632
2017-09-28T11:39:02.699Z,17760
2017-09-28T11:40:02.741Z,17696
2017-09-28T11:41:03.077Z,17792
2017-09-28T11:42:03.104Z,17920
2017-09-28T11:43:02.817Z,18304
2017-09-28T11:44:02.844Z,17760
2017-09-28T11:45:02.878Z,16992
2017-09-28T11:46:02.918Z,18144
2017-09-28T11:47:02.944Z,18880
2017-09-28T11:48:02.966Z,18880
2017-09-28T11:49:02.995Z,19040
2017-09-28T11:50:03.023Z,18304
2017-09-28T11:51:03.380Z,18624
2017-09-28T11:52:03.090Z,18848
2017-09-28T11:53:03.163Z,19232
2017-09-28T11:54:03.452Z,19744
2017-09-28T11:55:03.171Z,20096
2017-09-28T11:56:03.629Z,20576
2017-09-28T11:57:03.287Z,21152
2017-09-28T11:58:03.253Z,21248
2017-09-28T11:59:03.294Z,21696
2017-09-28T12:00:03.323Z,21888
2017-09-28T12:01:03.377Z,22016
2017-09-28T12:02:03.378Z,23136
2017-09-28T12:03:03.431Z,23456
2017-09-28T12:04:03.436Z,23040
2017-09-28T12:05:03.511Z,24096
2017-09-28T12:06:03.497Z,25088
2017-09-28T12:07:03.847Z,25664
2017-09-28T12:08:03.614Z,25856
2017-09-28T12:09:03.595Z,25504
2017-09-28T12:10:04.669Z,25888
2017-09-28T12:11:03.653Z,25120
2017-09-28T12:12:03.717Z,25504
2017-09-28T12:13:03.726Z,26016
2017-09-28T12:14:03.747Z,27488
2017-09-28T12:15:03.772Z,27680
2017-09-28T12:16:03.805Z,29120
2017-09-28T12:17:03.880Z,29248
2017-09-28T12:18:03.855Z,29536
2017-09-28T12:19:03.896Z,30976
2017-09-28T12:20:03.919Z,30016
2017-09-28T12:21:04.261Z,28896
2017-09-28T12:22:03.998Z,29280
2017-09-28T12:23:04.071Z,31680
2017-09-28T12:24:04.048Z,32704
2017-09-28T12:25:04.086Z,34368
2017-09-28T12:26:04.104Z,35680
2017-09-28T12:27:04.152Z,37344
2017-09-28T12:28:04.168Z,38240
2017-09-28T12:29:04.205Z,41184
2017-09-28T12:30:04.249Z,42400
2017-09-28T12:31:04.261Z,43744
2017-09-28T12:32:04.294Z,45472
2017-09-28T12:33:04.417Z,47040
2017-09-28T12:34:04.363Z,48512
2017-09-28T12:35:04.388Z,47072
2017-09-28T12:36:04.416Z,47584
2017-09-28T12:37:04.452Z,47392
2017-09-28T12:38:04.540Z,44512
2017-09-28T12:39:04.591Z,41536
2017-09-28T12:40:04.875Z,41312
2017-09-28T12:41:04.583Z,42592
2017-09-28T12:42:04.618Z,42400
2017-09-28T12:43:04.747Z,42688
2017-09-28T12:44:04.999Z,42752
2017-09-28T12:45:05.035Z,42432
2017-09-28T12:46:04.755Z,38560
2017-09-28T12:47:04.777Z,37408
2017-09-28T12:48:05.208Z,34656
2017-09-28T12:49:04.842Z,38400
2017-09-28T12:50:04.951Z,35264
2017-09-28T12:51:04.905Z,33376
2017-09-28T12:52:04.945Z,31296
2017-09-28T12:53:04.986Z,28416
2017-09-28T12:54:05.061Z,26432
2017-09-28T12:55:05.043Z,25568
2017-09-28T12:56:05.068Z,26144
2017-09-28T12:57:05.105Z,27168
2017-09-28T12:58:05.136Z,26880
2017-09-28T12:59:05.248Z,25920
2017-09-28T13:00:05.198Z,25728
2017-09-28T13:01:05.234Z,25248
2017-09-28T13:02:05.267Z,25088
2017-09-28T13:03:05.301Z,22656
2017-09-28T13:04:05.404Z,22208
2017-09-28T13:05:05.511Z,21472
2017-09-28T13:06:05.400Z,21152
2017-09-28T13:07:05.418Z,20864
2017-09-28T13:08:05.778Z,21504
2017-09-28T13:09:05.552Z,22944
2017-09-28T13:10:05.605Z,22688
2017-09-28T13:11:05.563Z,23360
2017-09-28T13:12:05.584Z,24320
2017-09-28T13:13:05.606Z,23680
2017-09-28T13:14:05.647Z,24480
2017-09-28T13:15:06.334Z,22048
2017-09-28T13:16:05.792Z,22624
2017-09-28T13:17:05.735Z,20416
2017-09-28T13:18:06.081Z,19264
2017-09-28T13:19:05.797Z,18496
2017-09-28T13:20:05.986Z,18624
2017-09-28T13:21:06.515Z,18080
2017-09-28T13:22:05.910Z,23264
2017-09-28T13:23:05.927Z,24640
2017-09-28T13:24:06.019Z,25440
2017-09-28T13:25:06.021Z,25728
2017-09-28T13:26:06.389Z,28768
2017-09-28T13:27:06.050Z,27488
2017-09-28T13:28:06.084Z,32640
2017-09-28T13:29:06.119Z,34528
2017-09-28T13:30:06.470Z,36256
2017-09-28T13:31:06.220Z,37632
2017-09-28T13:32:06.204Z,41120
2017-09-28T13:33:06.246Z,41600
2017-09-28T13:34:06.321Z,41920
2017-09-28T13:35:06.653Z,39456
2017-09-28T13:36:06.342Z,26976
2017-09-28T13:37:06.515Z,38208
2017-09-28T13:38:06.714Z,36192
2017-09-28T13:39:06.490Z,36704
2017-09-28T13:40:06.518Z,33856